sensor_id;sensor_type;location;lat;lon;timestamp;pressure;altitude;pressure_sealevel;temperature;humidity
42411;BME280;28056;51.112;0.984;2023-03-14T00:01:13;97958.52;;;11.45;61.41
42411;BME280;28056;51.112;0.984;2023-03-14T00:03:41;97965.90;;;11.29;62.86
42411;BME280;28056;51.112;0.984;2023-03-14T00:06:10;97964.99;;;10.80;64.15
42411;BME280;28056;51.112;0.984;2023-03-14T00:08:38;97961.27;;;11.25;63.60
42411;BME280;28056;51.112;0.984;2023-03-14T00:11:07;97958.83;;;11.43;63.01
42411;BME280;28056;51.112;0.984;2023-03-14T00:13:35;97967.92;;;11.95;62.89
42411;BME280;28056;51.112;0.984;2023-03-14T00:16:05;97965.40;;;11.48;62.34
42411;BME280;28056;51.112;0.984;2023-03-14T00:18:33;97969.55;;;11.49;62.70
42411;BME280;28056;51.112;0.984;2023-03-14T00:21:03;97967.33;;;11.59;62.93
42411;BME280;28056;51.112;0.984;2023-03-14T00:23:32;97967.81;;;11.53;62.72
42411;BME280;28056;51.112;0.984;2023-03-14T00:26:01;97969.20;;;11.64;62.61
42411;BME280;28056;51.112;0.984;2023-03-14T00:28:29;97966.83;;;11.69;61.88
42411;BME280;28056;51.112;0.984;2023-03-14T00:30:57;97961.25;;;11.94;61.14
42411;BME280;28056;51.112;0.984;2023-03-14T00:33:25;97954.02;;;12.09;60.51
42411;BME280;28056;51.112;0.984;2023-03-14T00:35:54;97954.23;;;11.78;61.85
42411;BME280;28056;51.112;0.984;2023-03-14T00:38:22;97961.15;;;11.94;60.86
42411;BME280;28056;51.112;0.984;2023-03-14T00:40:50;97956.62;;;11.88;61.54
42411;BME280;28056;51.112;0.984;2023-03-14T00:43:17;97960.66;;;11.91;61.86
42411;BME280;28056;51.112;0.984;2023-03-14T00:45:45;97959.27;;;12.01;62.14
42411;BME280;28056;51.112;0.984;2023-03-14T00:48:12;97958.87;;;11.74;62.58
42411;BME280;28056;51.112;0.984;2023-03-14T00:50:41;97953.30;;;12.00;61.66
42411;BME280;28056;51.112;0.984;2023-03-14T00:53:08;97952.01;;;12.26;61.26
42411;BME280;28056;51.112;0.984;2023-03-14T00:55:37;97951.95;;;12.00;61.08
42411;BME280;28056;51.112;0.984;2023-03-14T00:58:05;97943.27;;;12.21;60.99
42411;BME280;28056;51.112;0.984;2023-03-14T01:00:33;97944.01;;;12.25;61.05
42411;BME280;28056;51.112;0.984;2023-03-14T01:04:48;97948.39;;;12.47;60.41
42411;BME280;28056;51.112;0.984;2023-03-14T01:07:16;97949.14;;;12.51;59.57
42411;BME280;28056;51.112;0.984;2023-03-14T01:09:44;97945.15;;;12.49;60.13
42411;BME280;28056;51.112;0.984;2023-03-14T01:12:12;97943.25;;;12.56;59.59
42411;BME280;28056;51.112;0.984;2023-03-14T01:14:39;97942.72;;;12.74;59.88
42411;BME280;28056;51.112;0.984;2023-03-14T01:17:06;97946.84;;;12.33;59.76
42411;BME280;28056;51.112;0.984;2023-03-14T01:19:34;97945.12;;;12.67;59.44
42411;BME280;28056;51.112;0.984;2023-03-14T01:22:01;97937.37;;;12.73;59.55
42411;BME280;28056;51.112;0.984;2023-03-14T01:24:29;97938.31;;;12.50;59.60
42411;BME280;28056;51.112;0.984;2023-03-14T01:26:57;97939.02;;;12.75;59.95
42411;BME280;28056;51.112;0.984;2023-03-14T01:29:25;97934.19;;;12.50;59.64
42411;BME280;28056;51.112;0.984;2023-03-14T01:31:52;97932.77;;;12.46;60.20
42411;BME280;28056;51.112;0.984;2023-03-14T01:34:19;97926.45;;;12.56;60.13
42411;BME280;28056;51.112;0.984;2023-03-14T01:36:47;97926.18;;;12.70;59.47
42411;BME280;28056;51.112;0.984;2023-03-14T01:39:14;97926.04;;;12.68;59.55
42411;BME280;28056;51.112;0.984;2023-03-14T01:41:41;97922.43;;;12.59;59.55
42411;BME280;28056;51.112;0.984;2023-03-14T01:44:10;97922.10;;;13.05;60.30
42411;BME280;28056;51.112;0.984;2023-03-14T01:46:39;97922.61;;;12.39;60.74
42411;BME280;28056;51.112;0.984;2023-03-14T01:49:13;97922.09;;;12.17;61.56
42411;BME280;28056;51.112;0.984;2023-03-14T01:51:46;97923.67;;;12.60;61.29
42411;BME280;28056;51.112;0.984;2023-03-14T01:54:20;97917.02;;;12.48;60.49
42411;BME280;28056;51.112;0.984;2023-03-14T01:56:54;97922.64;;;12.55;60.37
42411;BME280;28056;51.112;0.984;2023-03-14T01:59:24;97919.59;;;12.43;60.29
42411;BME280;28056;51.112;0.984;2023-03-14T02:01:54;97922.21;;;12.85;59.79
42411;BME280;28056;51.112;0.984;2023-03-14T02:04:23;97915.33;;;12.81;59.87
42411;BME280;28056;51.112;0.984;2023-03-14T02:06:59;97916.35;;;12.63;59.86
42411;BME280;28056;51.112;0.984;2023-03-14T02:09:28;97918.86;;;12.65;60.13
42411;BME280;28056;51.112;0.984;2023-03-14T02:11:55;97922.70;;;12.90;60.36
42411;BME280;28056;51.112;0.984;2023-03-14T02:14:30;97925.89;;;12.91;59.53
42411;BME280;28056;51.112;0.984;2023-03-14T02:16:59;97924.13;;;12.72;59.44
42411;BME280;28056;51.112;0.984;2023-03-14T02:19:43;97924.25;;;12.72;59.73
42411;BME280;28056;51.112;0.984;2023-03-14T02:22:14;97921.71;;;13.10;59.95
42411;BME280;28056;51.112;0.984;2023-03-14T02:24:49;97921.69;;;12.94;59.66
42411;BME280;28056;51.112;0.984;2023-03-14T02:27:20;97925.53;;;12.65;59.99
42411;BME280;28056;51.112;0.984;2023-03-14T02:29:52;97925.27;;;12.63;59.45
42411;BME280;28056;51.112;0.984;2023-03-14T02:32:23;97924.47;;;12.54;59.34
42411;BME280;28056;51.112;0.984;2023-03-14T02:34:55;97927.84;;;12.48;59.69
42411;BME280;28056;51.112;0.984;2023-03-14T02:37:28;97921.85;;;12.70;59.80
42411;BME280;28056;51.112;0.984;2023-03-14T02:39:59;97932.04;;;12.97;60.36
42411;BME280;28056;51.112;0.984;2023-03-14T02:42:27;97932.58;;;12.46;61.41
42411;BME280;28056;51.112;0.984;2023-03-14T02:45:01;97930.26;;;12.67;61.17
42411;BME280;28056;51.112;0.984;2023-03-14T02:47:56;97947.99;;;12.36;61.94
42411;BME280;28056;51.112;0.984;2023-03-14T02:50:28;97954.05;;;12.05;63.27
42411;BME280;28056;51.112;0.984;2023-03-14T02:52:57;97960.97;;;12.22;63.62
42411;BME280;28056;51.112;0.984;2023-03-14T02:55:25;97965.70;;;9.84;69.28
42411;BME280;28056;51.112;0.984;2023-03-14T02:57:53;97981.27;;;6.14;79.36
42411;BME280;28056;51.112;0.984;2023-03-14T03:00:21;98036.73;;;5.24;86.53
42411;BME280;28056;51.112;0.984;2023-03-14T03:02:49;98063.97;;;4.69;88.56
42411;BME280;28056;51.112;0.984;2023-03-14T03:05:16;98071.46;;;4.41;86.97
42411;BME280;28056;51.112;0.984;2023-03-14T03:07:45;98080.96;;;5.14;83.97
42411;BME280;28056;51.112;0.984;2023-03-14T03:10:12;98094.27;;;5.04;80.97
42411;BME280;28056;51.112;0.984;2023-03-14T03:12:40;98093.80;;;4.87;81.05
42411;BME280;28056;51.112;0.984;2023-03-14T03:15:07;98110.23;;;5.06;79.29
42411;BME280;28056;51.112;0.984;2023-03-14T03:17:35;98122.21;;;5.02;78.63
42411;BME280;28056;51.112;0.984;2023-03-14T03:20:03;98119.78;;;4.94;79.04
42411;BME280;28056;51.112;0.984;2023-03-14T03:22:30;98126.88;;;5.77;76.00
42411;BME280;28056;51.112;0.984;2023-03-14T03:24:57;98124.13;;;5.78;74.74
42411;BME280;28056;51.112;0.984;2023-03-14T03:27:24;98126.83;;;5.38;74.19
42411;BME280;28056;51.112;0.984;2023-03-14T03:29:51;98140.30;;;5.81;73.01
42411;BME280;28056;51.112;0.984;2023-03-14T03:32:19;98141.11;;;5.83;72.33
42411;BME280;28056;51.112;0.984;2023-03-14T03:34:46;98145.92;;;5.89;71.78
42411;BME280;28056;51.112;0.984;2023-03-14T03:37:13;98149.80;;;5.77;71.10
42411;BME280;28056;51.112;0.984;2023-03-14T03:39:40;98142.33;;;5.78;71.60
42411;BME280;28056;51.112;0.984;2023-03-14T03:42:07;98164.06;;;5.89;72.46
42411;BME280;28056;51.112;0.984;2023-03-14T03:44:35;98165.39;;;5.22;73.45
42411;BME280;28056;51.112;0.984;2023-03-14T03:47:03;98174.78;;;4.64;75.94
42411;BME280;28056;51.112;0.984;2023-03-14T03:49:32;98176.44;;;5.63;72.82
42411;BME280;28056;51.112;0.984;2023-03-14T03:52:00;98188.06;;;5.31;72.62
42411;BME280;28056;51.112;0.984;2023-03-14T03:54:27;98201.04;;;4.25;78.24
42411;BME280;28056;51.112;0.984;2023-03-14T03:56:55;98208.17;;;3.69;81.87
42411;BME280;28056;51.112;0.984;2023-03-14T03:59:23;98208.28;;;3.80;83.00
42411;BME280;28056;51.112;0.984;2023-03-14T04:01:51;98222.56;;;3.21;84.10
42411;BME280;28056;51.112;0.984;2023-03-14T04:04:19;98230.19;;;3.42;84.48
42411;BME280;28056;51.112;0.984;2023-03-14T04:06:47;98236.24;;;3.05;82.93
42411;BME280;28056;51.112;0.984;2023-03-14T04:09:14;98243.06;;;2.95;82.01
42411;BME280;28056;51.112;0.984;2023-03-14T04:11:42;98253.39;;;3.20;78.87
42411;BME280;28056;51.112;0.984;2023-03-14T04:14:09;98266.79;;;2.95;78.48
42411;BME280;28056;51.112;0.984;2023-03-14T04:16:37;98270.18;;;2.74;79.69
42411;BME280;28056;51.112;0.984;2023-03-14T04:19:05;98274.58;;;2.99;79.26
42411;BME280;28056;51.112;0.984;2023-03-14T04:21:32;98281.10;;;2.83;78.67
42411;BME280;28056;51.112;0.984;2023-03-14T04:23:59;98288.27;;;2.52;79.50
42411;BME280;28056;51.112;0.984;2023-03-14T04:26:26;98306.82;;;2.36;79.33
42411;BME280;28056;51.112;0.984;2023-03-14T04:28:53;98302.11;;;2.16;78.67
42411;BME280;28056;51.112;0.984;2023-03-14T04:31:21;98310.70;;;2.48;78.09
42411;BME280;28056;51.112;0.984;2023-03-14T04:33:49;98324.19;;;2.45;76.47
42411;BME280;28056;51.112;0.984;2023-03-14T04:36:16;98341.09;;;2.27;76.19
42411;BME280;28056;51.112;0.984;2023-03-14T04:38:43;98332.89;;;2.13;74.08
42411;BME280;28056;51.112;0.984;2023-03-14T04:41:10;98344.47;;;2.18;72.21
42411;BME280;28056;51.112;0.984;2023-03-14T04:43:38;98360.86;;;2.19;72.44
42411;BME280;28056;51.112;0.984;2023-03-14T04:46:06;98365.27;;;2.04;71.16
42411;BME280;28056;51.112;0.984;2023-03-14T04:48:33;98368.78;;;1.97;70.03
42411;BME280;28056;51.112;0.984;2023-03-14T04:51:00;98385.82;;;2.30;69.21
42411;BME280;28056;51.112;0.984;2023-03-14T04:53:28;98390.08;;;2.27;68.33
42411;BME280;28056;51.112;0.984;2023-03-14T04:55:56;98402.86;;;2.27;67.99
42411;BME280;28056;51.112;0.984;2023-03-14T04:58:24;98406.35;;;2.52;66.97
42411;BME280;28056;51.112;0.984;2023-03-14T05:00:51;98411.83;;;2.75;66.46
42411;BME280;28056;51.112;0.984;2023-03-14T05:03:19;98418.84;;;2.69;65.81
42411;BME280;28056;51.112;0.984;2023-03-14T05:05:46;98423.05;;;2.49;66.09
42411;BME280;28056;51.112;0.984;2023-03-14T05:08:14;98424.93;;;2.47;65.74
42411;BME280;28056;51.112;0.984;2023-03-14T05:10:42;98425.82;;;2.71;66.28
42411;BME280;28056;51.112;0.984;2023-03-14T05:13:10;98432.24;;;2.09;67.74
42411;BME280;28056;51.112;0.984;2023-03-14T05:15:37;98442.87;;;1.85;69.27
42411;BME280;28056;51.112;0.984;2023-03-14T05:18:05;98439.37;;;1.83;69.48
42411;BME280;28056;51.112;0.984;2023-03-14T05:20:31;98445.43;;;1.55;70.25
42411;BME280;28056;51.112;0.984;2023-03-14T05:22:59;98466.26;;;1.77;69.70
42411;BME280;28056;51.112;0.984;2023-03-14T05:25:26;98482.90;;;1.76;70.24
42411;BME280;28056;51.112;0.984;2023-03-14T05:27:54;98491.89;;;2.10;69.78
42411;BME280;28056;51.112;0.984;2023-03-14T05:30:21;98501.68;;;2.25;69.94
42411;BME280;28056;51.112;0.984;2023-03-14T05:32:49;98509.36;;;1.64;70.16
42411;BME280;28056;51.112;0.984;2023-03-14T05:35:16;98517.39;;;1.69;69.84
42411;BME280;28056;51.112;0.984;2023-03-14T05:37:44;98523.07;;;1.73;68.80
42411;BME280;28056;51.112;0.984;2023-03-14T05:40:12;98536.58;;;1.71;67.36
42411;BME280;28056;51.112;0.984;2023-03-14T05:42:39;98541.69;;;2.01;66.59
42411;BME280;28056;51.112;0.984;2023-03-14T05:45:07;98551.61;;;2.21;64.96
42411;BME280;28056;51.112;0.984;2023-03-14T05:47:34;98554.99;;;2.41;63.35
42411;BME280;28056;51.112;0.984;2023-03-14T05:50:01;98568.42;;;2.44;64.25
42411;BME280;28056;51.112;0.984;2023-03-14T05:52:29;98579.95;;;1.15;69.31
42411;BME280;28056;51.112;0.984;2023-03-14T05:54:56;98581.34;;;1.10;69.32
42411;BME280;28056;51.112;0.984;2023-03-14T05:57:23;98589.59;;;1.06;70.56
42411;BME280;28056;51.112;0.984;2023-03-14T05:59:50;98598.81;;;0.97;71.46
42411;BME280;28056;51.112;0.984;2023-03-14T06:02:18;98607.71;;;1.07;70.27
42411;BME280;28056;51.112;0.984;2023-03-14T06:04:45;98618.52;;;0.95;71.89
42411;BME280;28056;51.112;0.984;2023-03-14T06:07:12;98620.42;;;1.05;72.19
42411;BME280;28056;51.112;0.984;2023-03-14T06:09:39;98633.37;;;1.13;70.95
42411;BME280;28056;51.112;0.984;2023-03-14T06:12:08;98627.07;;;0.76;71.96
42411;BME280;28056;51.112;0.984;2023-03-14T06:14:35;98640.10;;;0.76;72.65
42411;BME280;28056;51.112;0.984;2023-03-14T06:17:02;98649.97;;;0.81;72.23
42411;BME280;28056;51.112;0.984;2023-03-14T06:19:29;98652.74;;;0.62;73.64
42411;BME280;28056;51.112;0.984;2023-03-14T06:21:56;98655.95;;;0.81;72.77
42411;BME280;28056;51.112;0.984;2023-03-14T06:24:23;98663.52;;;0.84;73.27
42411;BME280;28056;51.112;0.984;2023-03-14T06:26:51;98671.72;;;0.80;74.09
42411;BME280;28056;51.112;0.984;2023-03-14T06:29:19;98672.74;;;0.61;72.97
42411;BME280;28056;51.112;0.984;2023-03-14T06:31:47;98679.09;;;0.68;73.78
42411;BME280;28056;51.112;0.984;2023-03-14T06:34:14;98677.79;;;0.64;73.68
42411;BME280;28056;51.112;0.984;2023-03-14T06:36:41;98689.64;;;0.63;73.44
42411;BME280;28056;51.112;0.984;2023-03-14T06:39:08;98702.58;;;0.59;73.36
42411;BME280;28056;51.112;0.984;2023-03-14T06:41:35;98707.20;;;0.54;73.09
42411;BME280;28056;51.112;0.984;2023-03-14T06:44:02;98709.24;;;0.32;72.22
42411;BME280;28056;51.112;0.984;2023-03-14T06:46:30;98723.17;;;0.59;71.28
42411;BME280;28056;51.112;0.984;2023-03-14T06:48:57;98732.54;;;0.64;71.88
42411;BME280;28056;51.112;0.984;2023-03-14T06:51:25;98744.38;;;0.85;71.77
42411;BME280;28056;51.112;0.984;2023-03-14T06:53:57;98750.58;;;0.63;70.74
42411;BME280;28056;51.112;0.984;2023-03-14T06:56:24;98757.98;;;0.60;70.41
42411;BME280;28056;51.112;0.984;2023-03-14T06:58:51;98768.14;;;0.69;70.28
42411;BME280;28056;51.112;0.984;2023-03-14T07:01:22;98778.45;;;0.68;69.82
42411;BME280;28056;51.112;0.984;2023-03-14T07:03:50;98780.72;;;0.67;70.20
42411;BME280;28056;51.112;0.984;2023-03-14T07:06:18;98796.56;;;0.77;69.74
42411;BME280;28056;51.112;0.984;2023-03-14T07:08:45;98793.86;;;0.83;69.08
42411;BME280;28056;51.112;0.984;2023-03-14T07:11:12;98806.80;;;0.75;70.51
42411;BME280;28056;51.112;0.984;2023-03-14T07:13:41;98804.05;;;0.97;68.35
42411;BME280;28056;51.112;0.984;2023-03-14T07:16:09;98813.51;;;0.95;69.60
42411;BME280;28056;51.112;0.984;2023-03-14T07:18:36;98812.56;;;0.96;69.43
42411;BME280;28056;51.112;0.984;2023-03-14T07:21:04;98824.06;;;0.85;69.29
42411;BME280;28056;51.112;0.984;2023-03-14T07:23:31;98828.88;;;1.04;69.09
42411;BME280;28056;51.112;0.984;2023-03-14T07:25:58;98841.70;;;1.03;69.97
42411;BME280;28056;51.112;0.984;2023-03-14T07:28:26;98845.53;;;1.03;69.57
42411;BME280;28056;51.112;0.984;2023-03-14T07:30:54;98856.78;;;1.07;70.84
42411;BME280;28056;51.112;0.984;2023-03-14T07:33:22;98860.22;;;1.48;69.27
42411;BME280;28056;51.112;0.984;2023-03-14T07:35:51;98875.74;;;1.39;70.50
42411;BME280;28056;51.112;0.984;2023-03-14T07:38:18;98882.22;;;1.46;69.05
42411;BME280;28056;51.112;0.984;2023-03-14T07:40:45;98886.19;;;1.32;69.86
42411;BME280;28056;51.112;0.984;2023-03-14T07:43:13;98889.69;;;1.31;69.09
42411;BME280;28056;51.112;0.984;2023-03-14T07:45:40;98901.50;;;1.54;69.78
42411;BME280;28056;51.112;0.984;2023-03-14T07:48:07;98912.05;;;1.41;70.21
42411;BME280;28056;51.112;0.984;2023-03-14T07:50:35;98913.91;;;1.65;69.73
42411;BME280;28056;51.112;0.984;2023-03-14T07:53:02;98919.55;;;1.63;69.38
42411;BME280;28056;51.112;0.984;2023-03-14T07:55:29;98932.85;;;1.46;71.03
42411;BME280;28056;51.112;0.984;2023-03-14T07:57:56;98928.30;;;1.31;70.36
42411;BME280;28056;51.112;0.984;2023-03-14T08:00:23;98941.28;;;1.64;69.81
42411;BME280;28056;51.112;0.984;2023-03-14T08:02:50;98941.51;;;1.62;70.41
42411;BME280;28056;51.112;0.984;2023-03-14T08:05:17;98940.44;;;1.70;69.68
42411;BME280;28056;51.112;0.984;2023-03-14T08:07:44;98947.34;;;1.49;70.87
42411;BME280;28056;51.112;0.984;2023-03-14T08:10:12;98952.04;;;1.44;70.57
42411;BME280;28056;51.112;0.984;2023-03-14T08:12:40;98960.29;;;1.69;71.00
42411;BME280;28056;51.112;0.984;2023-03-14T08:15:09;98961.94;;;1.71;69.12
42411;BME280;28056;51.112;0.984;2023-03-14T08:17:36;98968.74;;;1.73;70.36
42411;BME280;28056;51.112;0.984;2023-03-14T08:20:05;98982.38;;;1.54;70.69
42411;BME280;28056;51.112;0.984;2023-03-14T08:22:32;98989.31;;;1.78;70.74
42411;BME280;28056;51.112;0.984;2023-03-14T08:24:59;98996.26;;;1.92;70.96
42411;BME280;28056;51.112;0.984;2023-03-14T08:27:26;99002.87;;;1.88;70.64
42411;BME280;28056;51.112;0.984;2023-03-14T08:29:53;99001.24;;;1.98;69.50
42411;BME280;28056;51.112;0.984;2023-03-14T08:32:21;99007.27;;;1.81;69.02
42411;BME280;28056;51.112;0.984;2023-03-14T08:34:49;99023.30;;;1.72;70.00
42411;BME280;28056;51.112;0.984;2023-03-14T08:37:16;99036.23;;;2.26;71.32
42411;BME280;28056;51.112;0.984;2023-03-14T08:39:43;99052.85;;;2.32;69.78
42411;BME280;28056;51.112;0.984;2023-03-14T08:42:11;99064.86;;;2.27;69.32
42411;BME280;28056;51.112;0.984;2023-03-14T08:44:38;99066.66;;;2.12;68.85
42411;BME280;28056;51.112;0.984;2023-03-14T08:47:05;99082.86;;;2.09;71.07
42411;BME280;28056;51.112;0.984;2023-03-14T08:49:32;99083.77;;;1.78;71.51
42411;BME280;28056;51.112;0.984;2023-03-14T08:52:01;99087.70;;;1.97;72.27
42411;BME280;28056;51.112;0.984;2023-03-14T08:54:29;99095.25;;;1.84;71.12
42411;BME280;28056;51.112;0.984;2023-03-14T08:56:57;99096.77;;;2.02;73.28
42411;BME280;28056;51.112;0.984;2023-03-14T08:59:25;99112.28;;;1.59;72.10
42411;BME280;28056;51.112;0.984;2023-03-14T09:01:51;99113.06;;;1.95;73.43
42411;BME280;28056;51.112;0.984;2023-03-14T09:04:19;99120.62;;;2.15;72.91
42411;BME280;28056;51.112;0.984;2023-03-14T09:06:46;99128.25;;;1.65;74.08
42411;BME280;28056;51.112;0.984;2023-03-14T09:09:13;99130.68;;;1.67;74.67
42411;BME280;28056;51.112;0.984;2023-03-14T09:11:41;99138.52;;;1.02;76.40
42411;BME280;28056;51.112;0.984;2023-03-14T09:14:08;99163.66;;;1.25;78.30
42411;BME280;28056;51.112;0.984;2023-03-14T09:16:35;99169.56;;;1.70;78.89
42411;BME280;28056;51.112;0.984;2023-03-14T09:19:03;99180.51;;;1.67;78.69
42411;BME280;28056;51.112;0.984;2023-03-14T09:21:30;99184.44;;;1.40;79.61
42411;BME280;28056;51.112;0.984;2023-03-14T09:23:57;99193.08;;;1.47;81.44
42411;BME280;28056;51.112;0.984;2023-03-14T09:26:24;99195.30;;;1.04;83.12
42411;BME280;28056;51.112;0.984;2023-03-14T09:28:51;99207.84;;;1.15;85.99
42411;BME280;28056;51.112;0.984;2023-03-14T09:31:18;99215.87;;;1.05;87.65
42411;BME280;28056;51.112;0.984;2023-03-14T09:33:45;99226.39;;;1.18;88.51
42411;BME280;28056;51.112;0.984;2023-03-14T09:36:12;99236.61;;;1.18;88.45
42411;BME280;28056;51.112;0.984;2023-03-14T09:38:41;99242.09;;;1.28;88.90
42411;BME280;28056;51.112;0.984;2023-03-14T09:41:15;99246.40;;;0.89;89.04
42411;BME280;28056;51.112;0.984;2023-03-14T09:43:44;99259.24;;;0.65;91.04
42411;BME280;28056;51.112;0.984;2023-03-14T09:46:13;99265.92;;;0.67;91.52
42411;BME280;28056;51.112;0.984;2023-03-14T09:48:41;99273.54;;;0.69;92.79
42411;BME280;28056;51.112;0.984;2023-03-14T09:51:14;99283.86;;;0.52;94.20
42411;BME280;28056;51.112;0.984;2023-03-14T09:53:45;99304.82;;;0.58;95.36
42411;BME280;28056;51.112;0.984;2023-03-14T09:56:15;99311.91;;;0.36;95.91
42411;BME280;28056;51.112;0.984;2023-03-14T09:58:47;99323.50;;;0.20;96.03
42411;BME280;28056;51.112;0.984;2023-03-14T10:01:16;99331.33;;;-0.17;96.69
42411;BME280;28056;51.112;0.984;2023-03-14T10:03:47;99342.73;;;-0.41;99.03
42411;BME280;28056;51.112;0.984;2023-03-14T10:06:16;99355.99;;;-0.56;100.00
42411;BME280;28056;51.112;0.984;2023-03-14T10:08:44;99366.53;;;-0.40;100.00
42411;BME280;28056;51.112;0.984;2023-03-14T10:11:15;99379.31;;;-0.28;100.00
42411;BME280;28056;51.112;0.984;2023-03-14T10:13:50;99394.03;;;-0.10;100.00
42411;BME280;28056;51.112;0.984;2023-03-14T10:16:29;99395.98;;;-0.57;100.00
42411;BME280;28056;51.112;0.984;2023-03-14T10:19:03;99404.38;;;-0.99;100.00
42411;BME280;28056;51.112;0.984;2023-03-14T10:21:35;99421.19;;;-0.46;100.00
42411;BME280;28056;51.112;0.984;2023-03-14T10:24:19;99429.99;;;-0.68;100.00
42411;BME280;28056;51.112;0.984;2023-03-14T10:26:49;99436.49;;;-0.42;100.00
42411;BME280;28056;51.112;0.984;2023-03-14T10:29:16;99442.46;;;-0.29;100.00
42411;BME280;28056;51.112;0.984;2023-03-14T10:31:48;99447.45;;;-0.21;100.00
42411;BME280;28056;51.112;0.984;2023-03-14T10:34:21;99453.60;;;-0.73;100.00
42411;BME280;28056;51.112;0.984;2023-03-14T10:36:53;99462.54;;;-0.65;100.00
42411;BME280;28056;51.112;0.984;2023-03-14T10:39:33;99470.43;;;-0.71;100.00
42411;BME280;28056;51.112;0.984;2023-03-14T10:42:05;99481.51;;;-0.66;100.00
42411;BME280;28056;51.112;0.984;2023-03-14T10:44:34;99490.33;;;-0.23;100.00
42411;BME280;28056;51.112;0.984;2023-03-14T10:47:03;99499.06;;;-0.14;100.00
42411;BME280;28056;51.112;0.984;2023-03-14T10:49:33;99510.05;;;-0.37;100.00
42411;BME280;28056;51.112;0.984;2023-03-14T10:52:12;99517.35;;;-0.34;100.00
42411;BME280;28056;51.112;0.984;2023-03-14T10:54:40;99528.85;;;-0.10;100.00
42411;BME280;28056;51.112;0.984;2023-03-14T10:57:07;99532.73;;;-0.50;100.00
42411;BME280;28056;51.112;0.984;2023-03-14T10:59:38;99541.43;;;-0.17;100.00
42411;BME280;28056;51.112;0.984;2023-03-14T11:02:25;99553.51;;;-0.27;100.00
42411;BME280;28056;51.112;0.984;2023-03-14T11:05:03;99561.78;;;0.05;100.00
42411;BME280;28056;51.112;0.984;2023-03-14T11:07:39;99570.98;;;0.19;100.00
42411;BME280;28056;51.112;0.984;2023-03-14T11:10:15;99572.86;;;0.05;100.00
42411;BME280;28056;51.112;0.984;2023-03-14T11:12:54;99583.99;;;0.54;100.00
42411;BME280;28056;51.112;0.984;2023-03-14T11:15:30;99590.52;;;0.45;100.00
42411;BME280;28056;51.112;0.984;2023-03-14T11:18:14;99594.14;;;0.11;100.00
42411;BME280;28056;51.112;0.984;2023-03-14T11:20:52;99606.56;;;-0.08;100.00
42411;BME280;28056;51.112;0.984;2023-03-14T11:23:22;99613.80;;;0.44;100.00
42411;BME280;28056;51.112;0.984;2023-03-14T11:25:56;99623.79;;;0.47;100.00
42411;BME280;28056;51.112;0.984;2023-03-14T11:28:35;99629.58;;;0.46;100.00
42411;BME280;28056;51.112;0.984;2023-03-14T11:31:12;99635.92;;;0.96;100.00
42411;BME280;28056;51.112;0.984;2023-03-14T11:33:47;99643.58;;;1.33;100.00
42411;BME280;28056;51.112;0.984;2023-03-14T11:36:22;99654.06;;;1.32;100.00
42411;BME280;28056;51.112;0.984;2023-03-14T11:38:57;99662.40;;;1.67;100.00
42411;BME280;28056;51.112;0.984;2023-03-14T11:41:30;99666.53;;;2.58;98.87
42411;BME280;28056;51.112;0.984;2023-03-14T11:44:02;99671.24;;;1.93;95.52
42411;BME280;28056;51.112;0.984;2023-03-14T11:46:35;99681.42;;;1.62;95.94
42411;BME280;28056;51.112;0.984;2023-03-14T11:49:11;99691.62;;;1.20;97.60
42411;BME280;28056;51.112;0.984;2023-03-14T11:51:43;99701.05;;;1.53;95.33
42411;BME280;28056;51.112;0.984;2023-03-14T11:54:17;99703.63;;;1.44;96.06
42411;BME280;28056;51.112;0.984;2023-03-14T11:56:52;99710.39;;;1.67;93.85
42411;BME280;28056;51.112;0.984;2023-03-14T11:59:24;99717.18;;;2.07;90.70
42411;BME280;28056;51.112;0.984;2023-03-14T12:01:57;99720.65;;;2.22;88.32
42411;BME280;28056;51.112;0.984;2023-03-14T12:04:39;99732.50;;;2.66;86.72
42411;BME280;28056;51.112;0.984;2023-03-14T12:07:16;99734.51;;;1.99;85.31
42411;BME280;28056;51.112;0.984;2023-03-14T12:09:45;99737.80;;;1.73;83.82
42411;BME280;28056;51.112;0.984;2023-03-14T12:12:16;99742.71;;;2.32;85.00
42411;BME280;28056;51.112;0.984;2023-03-14T12:14:51;99749.87;;;2.08;84.07
42411;BME280;28056;51.112;0.984;2023-03-14T12:17:22;99750.04;;;2.88;83.08
42411;BME280;28056;51.112;0.984;2023-03-14T12:20:02;99750.35;;;3.93;81.60
42411;BME280;28056;51.112;0.984;2023-03-14T12:22:32;99763.11;;;5.13;76.16
42411;BME280;28056;51.112;0.984;2023-03-14T12:25:05;99772.77;;;5.21;73.59
42411;BME280;28056;51.112;0.984;2023-03-14T12:27:44;99765.90;;;4.53;70.95
42411;BME280;28056;51.112;0.984;2023-03-14T12:30:30;99763.89;;;4.21;74.36
42411;BME280;28056;51.112;0.984;2023-03-14T12:33:33;99768.94;;;5.62;73.10
42411;BME280;28056;51.112;0.984;2023-03-14T12:36:04;99777.08;;;6.45;71.95
42411;BME280;28056;51.112;0.984;2023-03-14T12:38:46;99777.82;;;3.94;71.59
42411;BME280;28056;51.112;0.984;2023-03-14T12:41:21;99779.98;;;4.69;72.51
42411;BME280;28056;51.112;0.984;2023-03-14T12:43:49;99780.71;;;4.67;72.75
42411;BME280;28056;51.112;0.984;2023-03-14T12:46:23;99785.19;;;4.90;67.82
42411;BME280;28056;51.112;0.984;2023-03-14T12:48:55;99787.41;;;3.88;66.85
42411;BME280;28056;51.112;0.984;2023-03-14T12:51:29;99788.33;;;5.01;64.72
42411;BME280;28056;51.112;0.984;2023-03-14T12:54:15;99793.78;;;4.92;63.66
42411;BME280;28056;51.112;0.984;2023-03-14T12:56:58;99797.16;;;3.98;65.21
42411;BME280;28056;51.112;0.984;2023-03-14T12:59:32;99798.10;;;4.22;67.33
42411;BME280;28056;51.112;0.984;2023-03-14T13:02:02;99798.35;;;3.87;67.14
42411;BME280;28056;51.112;0.984;2023-03-14T13:04:33;99805.26;;;4.14;66.21
42411;BME280;28056;51.112;0.984;2023-03-14T13:07:01;99802.91;;;3.06;69.00
42411;BME280;28056;51.112;0.984;2023-03-14T13:09:52;99807.91;;;3.18;69.09
42411;BME280;28056;51.112;0.984;2023-03-14T13:12:25;99813.22;;;3.27;70.47
42411;BME280;28056;51.112;0.984;2023-03-14T13:14:54;99819.19;;;3.80;68.37
42411;BME280;28056;51.112;0.984;2023-03-14T13:17:30;99828.53;;;4.05;73.60
42411;BME280;28056;51.112;0.984;2023-03-14T13:20:00;99827.60;;;4.17;66.28
42411;BME280;28056;51.112;0.984;2023-03-14T13:22:33;99835.60;;;4.68;67.12